Time;durP1;ratioP1;P1;durP2;ratioP2;P2;SDS_P1;SDS_P2;PMS_P1;PMS_P2;Temp;Humidity;BMP_temperature;BMP_pressure;BME280_temperature;BME280_humidity;BME280_pressure;Samples;Min_cycle;Max_cycle;Signal;HPM_P1;HPM_P2
2022/12/23 00:00:18;;;;;;;;;0.00;0.00;;;;;14.72;79.36;100412.78;5092617;27;45720;-64
2022/12/23 00:02:44;;;;;;;;;0.67;0.00;;;;;14.65;79.43;100399.75;5097611;27;45385;-65
2022/12/23 00:05:11;;;;;;;;;0.00;0.00;;;;;14.69;79.52;100406.69;5093451;27;45861;-65
2022/12/23 00:07:37;;;;;;;;;0.00;0.00;;;;;14.69;79.50;100404.06;5092550;27;45483;-64
2022/12/23 00:10:03;;;;;;;;;1.67;1.00;;;;;14.68;79.29;100402.31;5093322;27;45705;-64
2022/12/23 00:19:00;;;;;;;;;0.00;0.00;;;;;14.53;79.35;100372.72;5028532;28;45418;-64
2022/12/23 00:21:26;;;;;;;;;0.33;0.33;;;;;14.72;80.00;100406.66;5026239;28;46949;-64
2022/12/23 00:23:52;;;;;;;;;0.00;0.00;;;;;14.68;80.02;100412.88;5095050;27;45481;-65
2022/12/23 00:26:23;;;;;;;;;0.00;0.00;;;;;14.61;80.33;100412.97;5091926;27;45744;-64
2022/12/23 00:28:49;;;;;;;;;0.00;0.00;;;;;14.56;80.44;100399.03;5089898;27;45548;-63
2022/12/23 00:31:19;;;;;;;;;0.00;0.00;;;;;14.67;80.81;100419.91;5092457;27;45513;-64
2022/12/23 00:33:47;;;;;;;;;0.67;0.00;;;;;14.61;80.70;100414.75;5087777;27;45490;-65
2022/12/23 00:36:27;;;;;;;;;0.00;0.00;;;;;14.66;81.18;100417.31;5090915;27;47147;-65
2022/12/23 00:44:22;;;;;;;;;0.33;0.33;;;;;14.68;81.04;100410.25;5095468;27;45360;-67
2022/12/23 00:46:48;;;;;;;;;0.00;0.00;;;;;14.67;81.49;100408.50;5096834;27;46588;-65
2022/12/23 00:52:01;;;;;;;;;0.00;0.00;;;;;14.55;83.00;100409.63;5092530;27;45468;-65
2022/12/23 00:54:27;;;;;;;;;0.00;0.00;;;;;14.49;83.00;100420.22;5092311;27;45679;-64
2022/12/23 00:56:53;;;;;;;;;0.33;0.33;;;;;14.37;83.56;100419.56;5092810;27;45416;-64
2022/12/23 00:59:18;;;;;;;;;1.00;1.00;;;;;14.41;83.85;100421.25;5091698;27;45421;-62
2022/12/23 01:07:12;;;;;;;;;0.00;0.00;;;;;14.48;84.15;100440.47;5092289;27;46325;-65
2022/12/23 01:09:37;;;;;;;;;3.00;2.00;;;;;14.49;85.42;100451.84;5090867;27;45514;-63
2022/12/23 01:12:03;;;;;;;;;0.00;0.00;;;;;14.47;84.88;100451.00;5090987;27;45405;-64
2022/12/23 01:14:30;;;;;;;;;1.00;1.00;;;;;14.47;85.24;100453.66;5093077;27;45991;-63
2022/12/23 01:16:55;;;;;;;;;0.00;0.00;;;;;14.40;85.81;100434.44;5093986;27;45446;-63
2022/12/23 01:19:21;;;;;;;;;0.00;0.00;;;;;14.46;85.48;100447.50;5091400;27;45615;-64
2022/12/23 01:21:46;;;;;;;;;0.00;0.00;;;;;14.45;85.94;100442.25;5094750;27;45376;-65
2022/12/23 01:24:12;;;;;;;;;0.00;0.00;;;;;14.45;85.08;100444.91;5096979;27;45751;-64
2022/12/23 01:26:37;;;;;;;;;0.00;0.00;;;;;14.46;85.19;100446.66;5094784;27;45547;-65
2022/12/23 01:29:03;;;;;;;;;0.00;0.00;;;;;14.45;85.72;100447.53;5092210;27;45748;-66
2022/12/23 01:31:29;;;;;;;;;1.67;0.00;;;;;14.41;85.79;100450.22;5092715;27;46333;-64
2022/12/23 01:33:55;;;;;;;;;0.00;0.00;;;;;14.45;86.27;100451.06;5076793;27;45290;-65
2022/12/23 01:36:21;;;;;;;;;0.00;0.00;;;;;14.35;86.43;100437.16;5087480;27;47435;-65
2022/12/23 01:38:47;;;;;;;;;0.00;0.00;;;;;14.35;86.43;100437.16;5094887;27;45615;-65
2022/12/23 01:44:49;;;;;;;;;0.00;0.00;;;;;14.42;86.41;100448.47;5091395;27;45563;-65
2022/12/23 01:47:45;;;;;;;;;0.00;0.00;;;;;14.41;86.61;100452.88;5091572;27;46639;-65
2022/12/23 01:50:16;;;;;;;;;0.00;0.00;;;;;14.41;86.23;100452.88;5093243;27;45487;-65
2022/12/23 01:53:07;;;;;;;;;2.00;0.00;;;;;14.44;86.47;100457.22;5092176;27;45526;-66
2022/12/23 01:55:39;;;;;;;;;0.00;0.00;;;;;14.33;86.66;100448.63;5091143;27;45728;-64
2022/12/23 01:58:13;;;;;;;;;0.00;0.00;;;;;14.39;86.08;100443.25;5092290;27;46957;-68
2022/12/23 02:03:42;;;;;;;;;0.67;0.67;;;;;14.40;86.50;100450.25;5089910;27;45849;-66
2022/12/23 02:09:28;;;;;;;;;1.00;0.00;;;;;14.45;86.37;100452.81;5089904;27;45802;-66
2022/12/23 02:12:35;;;;;;;;;0.00;0.00;;;;;14.45;86.15;100458.06;5093319;27;45455;-67
2022/12/23 02:18:36;;;;;;;;;0.67;0.67;;;;;14.46;86.47;100465.97;5080106;27;45590;-67
2022/12/23 02:21:20;;;;;;;;;0.00;0.00;;;;;14.46;86.16;100450.16;5089339;27;46900;-65
2022/12/23 02:24:16;;;;;;;;;0.00;0.00;;;;;14.33;86.30;100432.81;5104255;27;45572;-67
2022/12/23 02:26:59;;;;;;;;;0.67;0.00;;;;;14.43;86.39;100445.81;5087714;27;45750;-66
2022/12/23 02:29:49;;;;;;;;;0.00;0.00;;;;;14.40;86.01;100432.69;5092196;27;45670;-67
2022/12/23 02:32:19;;;;;;;;;0.00;0.00;;;;;14.46;86.06;100444.03;5090636;27;45738;-67
2022/12/23 02:34:55;;;;;;;;;0.67;0.00;;;;;14.41;86.14;100442.31;5103356;27;45582;-66
2022/12/23 02:37:31;;;;;;;;;1.67;1.00;;;;;14.38;85.62;100431.00;5099783;27;45400;-65
2022/12/23 02:40:07;;;;;;;;;1.00;1.00;;;;;14.41;85.23;100433.56;5096967;27;45479;-66
2022/12/23 02:42:45;;;;;;;;;2.33;1.00;;;;;14.46;84.65;100444.03;5090046;27;46306;-66
2022/12/23 02:45:22;;;;;;;;;2.33;1.00;;;;;14.44;84.37;100436.13;5098968;27;45511;-64
2022/12/23 02:48:10;;;;;;;;;2.00;0.33;;;;;14.45;84.31;100443.16;5096455;27;45483;-65
2022/12/23 02:50:39;;;;;;;;;1.00;1.00;;;;;14.40;83.95;100435.34;5097300;27;46530;-66
2022/12/23 02:53:20;;;;;;;;;1.67;0.00;;;;;14.42;83.99;100436.16;5100122;27;45348;-66
2022/12/23 02:55:49;;;;;;;;;1.00;0.00;;;;;14.38;84.07;100431.84;5095525;27;45291;-64
2022/12/23 02:58:19;;;;;;;;;1.67;1.00;;;;;14.40;83.52;100429.16;5094899;27;45802;-64
2022/12/23 03:00:47;;;;;;;;;2.00;1.00;;;;;14.39;83.59;100433.59;5096145;27;45272;-65
2022/12/23 03:03:15;;;;;;;;;3.00;1.00;;;;;14.40;83.67;100442.34;5098228;27;45942;-65
2022/12/23 03:05:45;;;;;;;;;3.00;0.00;;;;;14.38;83.38;100446.81;5100220;27;45405;-65
2022/12/23 03:08:28;;;;;;;;;0.67;0.67;;;;;14.30;83.45;100433.75;5096736;27;45348;-64
2022/12/23 03:11:07;;;;;;;;;2.33;1.00;;;;;14.35;83.34;100442.44;5096008;27;45547;-64
2022/12/23 03:13:44;;;;;;;;;2.00;0.33;;;;;14.35;83.29;100442.44;5095385;27;46948;-65
2022/12/23 03:16:47;;;;;;;;;0.00;0.00;;;;;14.35;83.45;100445.06;5082820;27;45361;-65
2022/12/23 03:19:36;;;;;;;;;3.67;0.67;;;;;14.35;83.25;100437.16;5094406;27;45628;-64
2022/12/23 03:22:18;;;;;;;;;0.00;0.00;;;;;14.36;83.55;100424.88;5077287;27;45776;-64
2022/12/23 03:25:10;;;;;;;;;0.00;0.00;;;;;14.35;83.04;100417.84;5085907;27;45444;-64
2022/12/23 03:27:54;;;;;;;;;3.00;0.33;;;;;14.31;83.23;100424.09;5090174;27;45396;-65
2022/12/23 03:30:21;;;;;;;;;1.00;1.00;;;;;14.27;83.24;100407.47;5097254;27;45699;-65
2022/12/23 03:33:14;;;;;;;;;1.00;1.00;;;;;14.34;82.80;100438.06;5100280;27;45471;-64
2022/12/23 03:35:48;;;;;;;;;0.00;0.00;;;;;14.30;82.93;100420.56;5099839;27;45508;-65
2022/12/23 03:38:18;;;;;;;;;1.67;1.00;;;;;14.35;82.96;100428.41;5096192;27;45468;-64
2022/12/23 03:40:51;;;;;;;;;2.33;1.00;;;;;14.37;82.68;100438.00;5087432;27;45524;-65
2022/12/23 03:43:27;;;;;;;;;0.00;0.00;;;;;14.36;82.70;100433.66;5091190;27;45626;-65
2022/12/23 03:46:02;;;;;;;;;1.00;1.00;;;;;14.25;82.65;100418.94;5094441;27;46751;-65
2022/12/23 03:48:53;;;;;;;;;2.67;0.67;;;;;14.33;82.90;100432.81;5110428;27;45625;-65
2022/12/23 03:51:25;;;;;;;;;1.00;1.00;;;;;14.24;82.78;100412.81;5095887;27;45471;-65
2022/12/23 03:53:56;;;;;;;;;0.00;0.00;;;;;14.21;83.38;100421.63;5096068;27;45450;-64
2022/12/23 03:56:35;;;;;;;;;1.00;1.00;;;;;14.26;82.64;100426.81;5095566;27;46291;-65
2022/12/23 03:59:24;;;;;;;;;0.00;0.00;;;;;14.29;83.19;100429.38;5094749;27;45452;-65
2022/12/23 04:02:14;;;;;;;;;2.00;1.00;;;;;14.27;83.00;100428.53;5094292;27;45727;-65
2022/12/23 04:04:58;;;;;;;;;2.00;0.00;;;;;14.27;82.73;100427.69;5085074;27;45490;-65
2022/12/23 04:07:29;;;;;;;;;0.00;0.00;;;;;14.29;83.11;100426.75;5090329;27;46679;-65
2022/12/23 04:09:57;;;;;;;;;4.00;0.67;;;;;14.25;83.48;100418.94;5095162;27;45590;-65
2022/12/23 04:12:24;;;;;;;;;0.67;0.67;;;;;14.24;83.30;100396.09;5095192;27;45518;-65
2022/12/23 04:14:50;;;;;;;;;2.00;1.00;;;;;14.14;83.38;100385.75;5095179;27;45516;-65
2022/12/23 04:17:17;;;;;;;;;0.67;0.33;;;;;14.23;83.52;100405.78;5093406;27;47801;-64
2022/12/23 04:19:46;;;;;;;;;0.00;0.00;;;;;14.24;83.31;100404.91;5093274;27;45939;-65
2022/12/23 04:22:13;;;;;;;;;0.67;0.67;;;;;14.21;83.32;100403.19;5095118;27;45515;-65
2022/12/23 04:24:38;;;;;;;;;0.00;0.00;;;;;14.20;83.50;100403.22;5095016;27;45931;-65
2022/12/23 04:27:05;;;;;;;;;1.00;1.00;;;;;14.17;83.91;100411.19;5090437;27;47682;-65
2022/12/23 04:29:31;;;;;;;;;2.00;0.67;;;;;14.16;83.37;100415.56;5097137;27;45696;-67
2022/12/23 04:31:56;;;;;;;;;0.33;0.33;;;;;14.17;83.85;100419.06;5095539;27;45391;-66
2022/12/23 04:34:22;;;;;;;;;1.33;0.67;;;;;14.16;84.30;100428.72;5093925;27;45726;-66
2022/12/23 04:36:48;;;;;;;;;0.00;0.00;;;;;14.16;83.80;100426.09;5093136;27;47610;-67
2022/12/23 04:39:13;;;;;;;;;1.33;1.00;;;;;14.09;84.01;100415.69;5096020;27;45483;-65
2022/12/23 04:41:39;;;;;;;;;2.33;0.67;;;;;14.12;84.46;100413.03;5090327;27;45466;-65
2022/12/23 04:44:05;;;;;;;;;0.67;0.67;;;;;14.11;84.40;100406.00;5095785;27;46210;-64
2022/12/23 04:46:30;;;;;;;;;0.33;0.33;;;;;14.14;84.44;100411.22;5094476;27;45851;-65
2022/12/23 04:48:56;;;;;;;;;3.67;0.00;;;;;14.08;84.90;100401.66;5095590;27;45738;-65
2022/12/23 04:51:22;;;;;;;;;3.67;1.33;;;;;14.06;84.58;100386.78;5098831;27;45527;-65
2022/12/23 04:53:47;;;;;;;;;1.00;1.00;;;;;14.09;84.81;100395.47;5099034;27;45330;-64
2022/12/23 04:56:13;;;;;;;;;1.00;1.00;;;;;14.06;84.42;100389.41;5095201;27;45549;-65
2022/12/23 04:58:38;;;;;;;;;1.00;1.00;;;;;14.14;84.63;100390.13;5091792;27;45491;-66
2022/12/23 05:01:08;;;;;;;;;1.67;1.67;;;;;14.10;84.60;100384.06;5098658;27;45495;-65
2022/12/23 05:03:34;;;;;;;;;3.00;0.67;;;;;14.06;84.01;100374.47;5097726;27;45417;-64
2022/12/23 05:06:00;;;;;;;;;1.00;1.00;;;;;14.09;84.80;100378.81;5097526;27;46020;-65
2022/12/23 05:08:25;;;;;;;;;2.33;1.00;;;;;14.08;84.54;100382.38;5094542;27;45382;-66
2022/12/23 05:10:51;;;;;;;;;1.00;1.00;;;;;14.09;85.14;100389.34;5094386;27;45425;-65
2022/12/23 05:13:16;;;;;;;;;3.33;1.00;;;;;14.15;85.10;100395.38;5094408;27;45357;-65
2022/12/23 05:15:47;;;;;;;;;3.00;1.67;;;;;14.10;85.17;100384.06;5093689;27;46158;-65
2022/12/23 05:18:13;;;;;;;;;1.33;1.00;;;;;14.10;84.81;100385.84;5094372;27;45543;-66
2022/12/23 05:20:39;;;;;;;;;1.00;1.00;;;;;14.11;84.79;100387.56;5093836;27;45373;-65
2022/12/23 05:23:04;;;;;;;;;1.33;1.00;;;;;14.17;85.21;100385.69;5093923;27;45506;-65
2022/12/23 05:25:32;;;;;;;;;3.33;1.00;;;;;14.14;85.00;100384.88;5093681;27;46026;-66
2022/12/23 05:27:58;;;;;;;;;1.00;1.00;;;;;14.20;85.03;100390.03;5089099;27;45322;-66
2022/12/23 05:30:24;;;;;;;;;1.00;1.00;;;;;14.18;85.25;100392.69;5085494;27;45729;-66
2022/12/23 05:32:55;;;;;;;;;2.00;1.00;;;;;14.16;85.19;100385.72;5094219;27;45444;-66
2022/12/23 05:35:21;;;;;;;;;2.00;0.67;;;;;14.20;85.17;100382.13;5095502;27;46372;-64
2022/12/23 05:37:47;;;;;;;;;2.33;1.67;;;;;14.22;85.09;100382.97;5095966;27;45781;-65
2022/12/23 05:40:13;;;;;;;;;2.67;1.00;;;;;14.15;86.27;100379.59;5094245;27;45382;-66
2022/12/23 05:42:39;;;;;;;;;2.00;2.00;;;;;14.14;86.07;100387.50;5083460;27;46072;-68
2022/12/23 05:45:05;;;;;;;;;1.33;1.33;;;;;14.19;86.26;100383.06;5093854;27;46086;-64
2022/12/23 05:47:30;;;;;;;;;0.00;0.00;;;;;14.17;86.28;100375.16;5091649;27;45378;-65
2022/12/23 05:49:56;;;;;;;;;3.00;1.33;;;;;14.00;87.01;100350.91;5092085;27;45914;-65
2022/12/23 05:52:21;;;;;;;;;3.67;2.00;;;;;14.03;87.93;100355.25;5079977;27;45619;-65
2022/12/23 05:54:47;;;;;;;;;1.00;1.00;;;;;14.06;87.75;100356.06;5096795;27;46300;-67
2022/12/23 05:57:12;;;;;;;;;1.67;1.67;;;;;14.02;88.45;100354.34;5096101;27;45694;-66
2022/12/23 05:59:38;;;;;;;;;3.00;1.67;;;;;14.05;87.91;100351.69;5098045;27;45491;-65
2022/12/23 06:02:03;;;;;;;;;2.00;1.00;;;;;14.05;88.65;100350.81;5094498;27;45361;-67
2022/12/23 06:04:29;;;;;;;;;1.00;1.00;;;;;14.00;89.08;100349.16;5093020;27;45399;-66
2022/12/23 06:06:55;;;;;;;;;2.00;2.00;;;;;13.93;89.25;100342.25;5095931;27;45586;-65
2022/12/23 06:09:20;;;;;;;;;1.00;1.00;;;;;13.92;90.14;100337.00;5097330;27;45538;-66
2022/12/23 06:11:46;;;;;;;;;1.00;1.00;;;;;13.97;89.96;100356.22;5097786;27;45470;-66
2022/12/23 06:14:11;;;;;;;;;1.67;1.67;;;;;13.96;90.55;100357.13;5096224;27;45886;-67
2022/12/23 06:16:37;;;;;;;;;1.00;1.00;;;;;14.00;90.29;100357.03;5098865;27;45367;-66
2022/12/23 06:19:02;;;;;;;;;2.00;0.67;;;;;14.02;89.83;100345.59;5100785;27;45485;-65
2022/12/23 06:21:28;;;;;;;;;1.00;1.00;;;;;13.97;90.10;100341.28;5100538;27;45465;-67
2022/12/23 06:23:53;;;;;;;;;2.00;1.00;;;;;14.07;90.15;100359.53;5101298;27;45451;-64
2022/12/23 06:26:19;;;;;;;;;2.33;1.00;;;;;13.96;90.82;100346.59;5097215;27;45334;-64
2022/12/23 06:28:45;;;;;;;;;1.67;1.00;;;;;13.95;90.55;100347.47;5096941;27;45408;-65
2022/12/23 06:31:10;;;;;;;;;2.00;2.00;;;;;14.01;90.45;100352.63;5092329;27;45569;-65
2022/12/23 06:33:36;;;;;;;;;0.00;0.00;;;;;14.09;90.35;100366.53;5091328;27;46552;-65
2022/12/23 06:36:02;;;;;;;;;2.67;1.00;;;;;14.17;89.89;100358.50;5096298;27;45831;-65
2022/12/23 06:38:27;;;;;;;;;1.33;1.00;;;;;14.19;89.72;100349.66;5095162;27;45392;-64
2022/12/23 06:40:53;;;;;;;;;1.33;1.33;;;;;14.17;89.78;100346.19;5086134;27;45405;-64
2022/12/23 06:43:18;;;;;;;;;2.00;2.00;;;;;14.19;89.53;100333.00;5091939;27;46469;-65
2022/12/23 06:45:47;;;;;;;;;1.00;1.00;;;;;14.15;89.66;100324.28;5097716;27;45567;-64
2022/12/23 06:48:14;;;;;;;;;0.00;0.00;;;;;14.20;89.78;100337.38;5099845;27;45319;-64
2022/12/23 06:50:39;;;;;;;;;1.67;1.00;;;;;14.21;89.88;100333.81;5085141;27;45960;-65
2022/12/23 06:53:05;;;;;;;;;0.00;0.00;;;;;14.23;90.02;100344.34;5094446;27;47824;-64
2022/12/23 06:55:31;;;;;;;;;0.33;0.00;;;;;14.21;89.50;100324.16;5096196;27;45504;-65
2022/12/23 06:57:56;;;;;;;;;0.00;0.00;;;;;14.25;89.87;100337.28;5094938;27;45573;-65
2022/12/23 07:00:22;;;;;;;;;1.00;0.00;;;;;14.11;89.81;100319.09;5097991;27;45780;-65
2022/12/23 07:02:47;;;;;;;;;1.00;1.00;;;;;14.18;90.19;100323.34;5099978;27;45786;-65
2022/12/23 07:05:13;;;;;;;;;1.00;1.00;;;;;14.09;90.01;100305.94;5097526;27;45494;-63
2022/12/23 07:07:39;;;;;;;;;2.00;1.00;;;;;14.13;90.30;100312.03;5090917;27;45750;-64
2022/12/23 07:10:05;;;;;;;;;0.00;0.00;;;;;14.17;89.93;100311.09;5091370;27;45757;-64
2022/12/23 07:12:31;;;;;;;;;1.33;1.00;;;;;14.23;90.08;100303.06;5095131;27;46457;-66
2022/12/23 07:14:56;;;;;;;;;1.67;0.67;;;;;14.21;90.03;100299.56;5097914;27;45330;-65
2022/12/23 07:17:22;;;;;;;;;1.00;1.00;;;;;14.19;90.02;100301.41;5100371;27;45588;-65
2022/12/23 07:19:47;;;;;;;;;0.00;0.00;;;;;14.25;89.56;100305.66;5100357;27;45259;-65
2022/12/23 07:22:13;;;;;;;;;1.67;0.00;;;;;14.27;89.50;100304.72;5099936;27;45551;-64
2022/12/23 07:24:38;;;;;;;;;1.00;0.00;;;;;14.33;89.35;100303.72;5099409;27;45511;-66
2022/12/23 07:27:04;;;;;;;;;0.00;0.00;;;;;14.31;89.49;100302.91;5093423;27;45454;-65
2022/12/23 07:29:29;;;;;;;;;0.00;0.00;;;;;14.33;89.23;100296.72;5095989;27;45538;-63
2022/12/23 07:32:00;;;;;;;;;1.00;1.00;;;;;14.34;88.86;100295.81;5095647;27;45404;-65
2022/12/23 07:34:26;;;;;;;;;1.00;1.00;;;;;14.32;89.31;100287.06;5094681;27;45478;-64
2022/12/23 07:36:51;;;;;;;;;1.00;1.00;;;;;14.38;89.09;100294.00;5095275;27;45534;-64
2022/12/23 07:39:17;;;;;;;;;1.00;1.00;;;;;14.40;88.84;100297.44;5097802;27;45495;-64
2022/12/23 07:41:42;;;;;;;;;2.00;1.00;;;;;14.36;88.37;100283.47;5084020;27;46913;-64
2022/12/23 07:44:08;;;;;;;;;1.00;1.00;;;;;14.36;88.59;100286.09;5093976;27;45411;-65
2022/12/23 07:46:33;;;;;;;;;1.67;1.00;;;;;14.45;88.36;100305.25;5094552;27;45361;-65
2022/12/23 07:48:59;;;;;;;;;0.00;0.00;;;;;14.47;87.95;100301.69;5096050;27;45591;-64
2022/12/23 07:51:24;;;;;;;;;0.67;0.67;;;;;14.46;87.70;100302.59;5095022;27;45491;-65
2022/12/23 07:53:50;;;;;;;;;1.00;1.00;;;;;14.43;88.25;100295.63;5095611;27;45689;-65
2022/12/23 07:56:16;;;;;;;;;0.67;0.67;;;;;14.50;87.78;100301.63;5094040;27;45404;-64
2022/12/23 07:58:42;;;;;;;;;0.00;0.00;;;;;14.41;87.73;100281.59;5094840;27;45432;-65
2022/12/23 08:01:07;;;;;;;;;1.00;1.00;;;;;14.50;87.81;100292.84;5090900;27;46576;-64
2022/12/23 08:03:34;;;;;;;;;0.00;0.00;;;;;14.51;87.57;100289.31;5095748;27;45558;-64
2022/12/23 08:06:01;;;;;;;;;0.00;0.00;;;;;14.48;87.49;100284.97;5096432;27;45390;-65
2022/12/23 08:08:27;;;;;;;;;1.00;0.67;;;;;14.39;87.64;100283.41;5095693;27;45530;-64
2022/12/23 08:11:02;;;;;;;;;0.00;0.00;;;;;14.46;87.57;100291.19;5093494;27;46618;-65
2022/12/23 17:11:22;;;;;;;;;3.00;2.67;;;;;12.76;85.25;100456.16;5128148;27;45462;-69
2022/12/23 17:13:49;;;;;;;;;4.00;2.00;;;;;12.93;84.66;100461.22;5125741;27;46800;-70
2022/12/23 17:16:19;;;;;;;;;2.00;1.00;;;;;13.10;84.38;100474.19;5130280;27;46216;-65
2022/12/23 17:18:49;;;;;;;;;3.00;1.67;;;;;13.22;83.26;100476.66;5123769;27;45535;-69
2022/12/23 17:21:25;;;;;;;;;6.33;5.00;;;;;13.41;82.53;100476.44;5130252;27;46219;-69
2022/12/23 17:24:03;;;;;;;;;6.33;2.00;;;;;13.55;81.62;100490.28;5124200;27;45479;-67
2022/12/23 17:26:28;;;;;;;;;3.67;1.67;;;;;13.58;81.40;100485.81;5127286;27;45759;-71
2022/12/23 17:28:54;;;;;;;;;5.33;3.33;;;;;13.66;80.59;100476.94;5128841;27;45974;-69
2022/12/23 17:31:21;;;;;;;;;3.33;2.33;;;;;13.85;80.50;100495.97;5128992;27;46106;-72
2022/12/23 17:33:47;;;;;;;;;6.67;3.00;;;;;13.92;79.84;100501.09;5144955;27;45738;-72
2022/12/23 17:36:13;;;;;;;;;3.00;2.67;;;;;13.94;79.64;100493.19;5129526;27;46537;-66
2022/12/23 17:38:39;;;;;;;;;4.67;2.00;;;;;14.03;78.41;100513.25;5130949;27;45509;-66
2022/12/23 17:41:04;;;;;;;;;8.33;2.00;;;;;14.05;78.04;100514.06;5124152;27;46692;-68
2022/12/23 17:43:30;;;;;;;;;5.33;3.00;;;;;14.08;77.90;100512.28;5127388;27;45947;-65
2022/12/23 17:45:56;;;;;;;;;2.67;2.67;;;;;14.15;78.38;100528.84;5129297;27;45317;-64
2022/12/23 17:48:21;;;;;;;;;4.00;2.00;;;;;14.03;78.22;100514.09;5128885;27;45654;-66
2022/12/23 17:50:47;;;;;;;;;4.67;3.67;;;;;14.10;77.01;100520.16;5127417;27;47010;-66
2022/12/23 17:53:15;;;;;;;;;4.67;2.00;;;;;14.15;77.59;100510.41;5129904;27;45813;-66
2022/12/23 17:55:41;;;;;;;;;5.33;4.67;;;;;14.15;76.98;100508.66;5128293;27;45448;-65
2022/12/23 17:58:06;;;;;;;;;4.33;2.33;;;;;14.24;76.74;100523.44;5127603;27;45461;-67
2022/12/23 18:00:32;;;;;;;;;5.00;2.00;;;;;14.24;76.77;100501.47;5119151;27;46565;-70
2022/12/23 18:02:57;;;;;;;;;2.67;2.67;;;;;14.12;76.48;100484.13;5122908;27;45323;-65
2022/12/23 18:05:29;;;;;;;;;5.00;3.00;;;;;14.28;76.18;100521.59;5117763;27;45541;-65
2022/12/23 18:07:59;;;;;;;;;3.67;3.00;;;;;14.28;76.00;100546.19;5125062;27;46027;-64
2022/12/23 18:10:36;;;;;;;;;4.33;4.33;;;;;14.30;76.12;100549.66;5116668;27;48989;-64
2022/12/23 18:13:05;;;;;;;;;6.00;4.00;;;;;14.23;76.02;100544.53;5123505;27;45726;-65
2022/12/23 18:15:45;;;;;;;;;6.67;5.67;;;;;14.26;76.08;100569.06;5119569;27;45713;-65
2022/12/23 18:18:17;;;;;;;;;4.33;3.33;;;;;14.31;76.02;100563.72;5112823;27;45614;-65
2022/12/23 18:20:50;;;;;;;;;6.00;4.00;;;;;14.26;75.36;100563.81;5114667;27;45689;-64
2022/12/23 18:23:36;;;;;;;;;6.00;3.33;;;;;14.27;75.97;100573.44;5081499;27;45850;-64
2022/12/23 18:26:06;;;;;;;;;7.00;4.00;;;;;14.26;75.11;100594.50;5105274;27;45495;-66
2022/12/23 18:28:33;;;;;;;;;8.33;4.00;;;;;14.28;75.41;100612.03;5108057;27;45587;-66
2022/12/23 18:31:01;;;;;;;;;7.33;3.00;;;;;14.24;75.41;100612.09;5110265;27;46214;-66
2022/12/23 18:33:30;;;;;;;;;6.00;4.33;;;;;14.09;75.12;100592.13;5108137;27;45637;-65
2022/12/23 18:35:56;;;;;;;;;5.33;2.33;;;;;14.25;75.14;100604.19;5110570;27;45502;-66
2022/12/23 18:38:21;;;;;;;;;10.00;5.00;;;;;14.15;74.68;100586.78;5109210;27;45488;-65
2022/12/23 18:40:55;;;;;;;;;7.33;3.00;;;;;14.28;74.84;100588.31;5123182;27;46941;-67
2022/12/23 18:43:27;;;;;;;;;7.33;4.00;;;;;14.33;74.78;100594.41;5118786;27;45339;-66
2022/12/23 18:45:53;;;;;;;;;5.33;4.33;;;;;14.35;74.87;100595.25;5117008;27;45507;-65
2022/12/23 18:48:33;;;;;;;;;13.00;5.67;;;;;14.33;74.67;100602.31;5116048;27;45549;-66
2022/12/23 18:50:59;;;;;;;;;7.67;6.00;;;;;14.33;74.75;100598.78;5115619;27;47729;-66
2022/12/23 18:53:25;;;;;;;;;5.33;5.00;;;;;14.27;74.84;100588.38;5116682;27;46071;-66
2022/12/23 18:55:52;;;;;;;;;10.67;4.67;;;;;14.25;74.19;100582.25;5116568;27;45395;-65
2022/12/23 18:58:17;;;;;;;;;5.00;3.00;;;;;14.30;74.59;100607.63;5097312;27;45364;-66
2022/12/23 19:00:44;;;;;;;;;10.33;5.00;;;;;14.29;74.55;100616.44;5115338;27;45899;-67
2022/12/23 19:03:26;;;;;;;;;6.67;3.67;;;;;14.33;74.64;100611.97;5115628;27;45518;-66
2022/12/23 19:05:53;;;;;;;;;7.00;5.00;;;;;14.32;74.72;100611.09;5103619;27;45395;-65
2022/12/23 19:08:20;;;;;;;;;11.33;8.33;;;;;14.23;74.35;100600.69;5128586;27;45581;-66
2022/12/23 19:10:47;;;;;;;;;13.67;8.67;;;;;14.32;74.16;100628.69;5113350;27;45928;-67
2022/12/23 19:13:13;;;;;;;;;6.00;6.00;;;;;14.29;74.84;100626.97;5119218;27;45497;-64
2022/12/23 19:15:41;;;;;;;;;9.33;7.33;;;;;14.29;74.73;100636.66;5119242;27;45482;-71
2022/12/23 19:18:07;;;;;;;;;11.33;6.33;;;;;14.31;75.01;100634.84;5114385;27;45698;-70
2022/12/23 19:20:33;;;;;;;;;6.67;5.00;;;;;14.24;74.46;100628.81;5116180;27;45463;-63
2022/12/23 19:22:58;;;;;;;;;11.67;5.67;;;;;14.28;74.54;100654.19;5110621;27;45524;-66
2022/12/23 19:25:24;;;;;;;;;5.67;4.67;;;;;14.21;74.56;100640.25;5114037;27;45324;-65
2022/12/23 19:27:50;;;;;;;;;5.33;2.33;;;;;14.16;74.98;100628.03;5116347;27;45579;-66
2022/12/23 19:30:17;;;;;;;;;9.67;7.33;;;;;14.15;74.42;100635.06;5116375;27;45531;-65
2022/12/23 19:32:43;;;;;;;;;9.00;6.00;;;;;14.20;74.55;100651.66;5108939;27;45539;-66
2022/12/23 19:35:13;;;;;;;;;16.00;9.00;;;;;14.20;74.38;100659.56;5102308;27;45784;-65
2022/12/23 19:37:39;;;;;;;;;10.33;6.00;;;;;14.18;74.75;100644.69;5092714;27;45517;-66
2022/12/23 19:40:06;;;;;;;;;5.67;5.00;;;;;13.99;74.17;100615.97;5101590;27;45569;-65
2022/12/23 19:42:32;;;;;;;;;5.33;5.00;;;;;14.29;74.99;100669.13;5100944;27;45631;-66
2022/12/23 19:44:59;;;;;;;;;8.00;5.33;;;;;14.24;74.53;100643.72;5109586;27;45586;-65
2022/12/23 19:47:24;;;;;;;;;5.00;4.00;;;;;14.21;74.51;100663.97;5116008;27;45492;-64
2022/12/23 19:49:50;;;;;;;;;7.67;5.33;;;;;14.20;74.84;100663.97;5107118;27;46388;-66
2022/12/23 19:52:15;;;;;;;;;6.00;4.33;;;;;14.23;74.73;100668.31;5130528;27;45452;-65
2022/12/23 19:54:41;;;;;;;;;8.33;5.67;;;;;14.24;74.25;100672.69;5115002;27;45423;-65
2022/12/23 19:57:06;;;;;;;;;11.33;5.00;;;;;14.18;74.54;100664.00;5116273;27;45366;-66
2022/12/23 19:59:32;;;;;;;;;10.33;4.00;;;;;14.24;74.32;100676.22;5118107;27;46511;-67
2022/12/23 20:01:57;;;;;;;;;16.00;13.00;;;;;14.26;74.73;100673.53;5119211;27;45584;-66
2022/12/23 20:04:23;;;;;;;;;11.33;6.00;;;;;14.19;74.25;100664.88;5101793;27;45483;-66
2022/12/23 20:06:50;;;;;;;;;8.67;5.00;;;;;14.14;75.09;100669.31;5109561;27;45381;-65
2022/12/23 20:09:17;;;;;;;;;7.67;5.67;;;;;14.16;75.03;100671.03;5106815;27;45697;-65
2022/12/23 20:11:47;;;;;;;;;6.00;4.33;;;;;14.17;74.73;100674.56;5101194;27;45490;-67
2022/12/23 20:14:15;;;;;;;;;5.00;4.33;;;;;14.16;74.57;100667.53;5111563;27;45388;-66
2022/12/23 20:16:42;;;;;;;;;10.33;7.33;;;;;14.17;74.41;100680.69;5117075;27;45909;-68
2022/12/23 20:19:08;;;;;;;;;12.00;5.00;;;;;14.09;74.56;100674.66;5115876;27;46942;-66
2022/12/23 20:21:36;;;;;;;;;11.33;6.00;;;;;14.12;73.91;100679.03;5112381;27;45486;-67
2022/12/23 20:24:02;;;;;;;;;6.00;4.67;;;;;14.11;73.97;100685.16;5129340;27;45559;-66
2022/12/23 20:26:28;;;;;;;;;10.00;5.00;;;;;14.01;73.79;100679.16;5115397;27;45421;-67
2022/12/23 20:28:54;;;;;;;;;9.00;6.00;;;;;14.04;73.87;100692.28;5112846;27;45527;-66
2022/12/23 20:31:26;;;;;;;;;6.00;4.00;;;;;14.07;73.72;100694.88;5113171;27;45537;-66
2022/12/23 20:33:53;;;;;;;;;9.33;5.67;;;;;14.07;73.89;100710.69;5104245;27;45505;-68
2022/12/23 20:36:21;;;;;;;;;8.67;5.00;;;;;14.06;73.82;100708.06;5115541;27;45438;-67
2022/12/23 20:38:47;;;;;;;;;6.00;3.33;;;;;13.99;73.73;100708.13;5114052;27;47324;-68
2022/12/23 20:41:16;;;;;;;;;8.67;5.67;;;;;14.01;73.79;100713.41;5111451;27;45502;-67
2022/12/23 20:43:42;;;;;;;;;8.33;3.67;;;;;13.97;73.52;100725.72;5115089;27;45468;-69
2022/12/23 20:46:11;;;;;;;;;11.67;5.33;;;;;13.96;73.17;100721.34;5117170;27;45511;-65
2022/12/23 20:48:37;;;;;;;;;5.67;4.67;;;;;13.95;73.82;100719.63;5126411;27;46619;-66
2022/12/23 20:51:05;;;;;;;;;3.67;3.67;;;;;13.84;73.60;100715.38;5110040;27;45467;-68
2022/12/23 20:53:31;;;;;;;;;7.67;5.00;;;;;13.90;73.74;100736.34;5110247;27;45575;-68
2022/12/23 20:56:04;;;;;;;;;8.67;6.00;;;;;13.84;73.31;100720.63;5112020;27;45311;-69
2022/12/23 21:01:14;;;;;;;;;9.00;4.00;;;;;13.88;73.58;100728.47;5116620;27;45827;-65
2022/12/23 21:03:40;;;;;;;;;9.67;7.00;;;;;13.85;73.96;100725.84;5114793;27;45504;-69
2022/12/23 21:06:07;;;;;;;;;3.33;2.67;;;;;13.85;73.82;100741.66;5101649;27;45499;-64